createdAt,value
2023-04-17T00:00:50.255Z,90.08
2023-04-17T00:03:14.261Z,89.08
2023-04-17T00:05:38.368Z,88.66
2023-04-17T00:08:03.455Z,88.90
2023-04-17T00:10:27.280Z,89.54
2023-04-17T00:12:51.212Z,88.64
2023-04-17T00:15:14.764Z,89.74
2023-04-17T00:17:38.444Z,89.12
2023-04-17T00:20:02.022Z,88.98
2023-04-17T00:22:25.949Z,88.97
2023-04-17T00:24:50.883Z,88.81
2023-04-17T00:27:14.574Z,88.87
2023-04-17T00:29:38.522Z,87.81
2023-04-17T00:32:02.184Z,88.04
2023-04-17T00:34:25.894Z,87.50
2023-04-17T00:36:49.622Z,88.01
2023-04-17T00:39:13.534Z,88.16
2023-04-17T00:41:38.766Z,88.26
2023-04-17T00:44:02.387Z,87.34
2023-04-17T00:46:26.122Z,87.77
2023-04-17T00:48:50.882Z,86.99
2023-04-17T00:51:14.648Z,86.24
2023-04-17T00:53:38.388Z,86.29
2023-04-17T00:56:04.478Z,86.63
2023-04-17T00:58:29.729Z,87.90
2023-04-17T01:00:54.167Z,87.70
2023-04-17T01:03:18.163Z,86.71
2023-04-17T01:05:42.994Z,87.81
2023-04-17T01:08:06.922Z,87.15
2023-04-17T01:10:30.520Z,86.61
2023-04-17T01:13:03.878Z,87.21
2023-04-17T01:15:29.636Z,86.87
2023-04-17T01:17:53.196Z,87.10
2023-04-17T01:20:17.107Z,86.36
2023-04-17T01:22:40.649Z,86.39
2023-04-17T01:25:06.920Z,87.13
2023-04-17T01:27:33.092Z,86.36
2023-04-17T01:29:56.759Z,86.03
2023-04-17T01:32:20.758Z,86.08
2023-04-17T01:34:44.574Z,85.31
2023-04-17T01:37:08.182Z,86.01
2023-04-17T01:39:31.855Z,86.75
2023-04-17T01:41:56.804Z,84.40
2023-04-17T01:44:20.764Z,85.34
2023-04-17T01:46:44.300Z,85.75
2023-04-17T01:49:08.017Z,85.46
2023-04-17T01:51:31.547Z,86.23
2023-04-17T01:53:55.420Z,86.28
2023-04-17T01:56:18.949Z,85.32
2023-04-17T01:58:44.057Z,85.62
2023-04-17T02:01:07.771Z,85.84
2023-04-17T02:03:32.054Z,85.38
2023-04-17T02:05:55.735Z,85.46
2023-04-17T02:08:19.399Z,86.45
2023-04-17T02:10:43.119Z,86.82
2023-04-17T02:13:08.029Z,87.23
2023-04-17T02:15:32.921Z,87.61
2023-04-17T02:17:56.661Z,86.45
2023-04-17T02:20:20.314Z,86.11
2023-04-17T02:22:43.948Z,86.71
2023-04-17T02:25:07.950Z,87.70
2023-04-17T02:27:31.917Z,87.84
2023-04-17T02:29:55.496Z,87.16
2023-04-17T02:32:20.798Z,87.55
2023-04-17T02:34:45.187Z,86.93
2023-04-17T02:37:11.530Z,87.20
2023-04-17T02:39:35.291Z,87.69
2023-04-17T02:41:59.184Z,87.72
2023-04-17T02:44:22.717Z,87.85
2023-04-17T02:46:46.332Z,87.18
2023-04-17T02:49:12.450Z,87.68
2023-04-17T02:51:36.696Z,87.00
2023-04-17T02:54:00.319Z,87.99
2023-04-17T02:56:23.964Z,87.96
2023-04-17T02:58:47.477Z,87.78
2023-04-17T03:01:11.143Z,86.92
2023-04-17T03:03:42.201Z,88.71
2023-04-17T03:06:10.876Z,87.64
2023-04-17T03:08:35.730Z,87.66
2023-04-17T03:10:59.905Z,87.88
2023-04-17T03:13:24.220Z,88.26
2023-04-17T03:15:49.276Z,87.26
2023-04-17T03:18:12.875Z,87.36
2023-04-17T03:20:36.566Z,86.65
2023-04-17T03:23:01.500Z,88.03
2023-04-17T03:25:25.215Z,87.92
2023-04-17T03:27:49.584Z,87.79
2023-04-17T03:30:15.656Z,87.26
2023-04-17T03:32:43.447Z,88.22
2023-04-17T03:35:07.708Z,89.06
2023-04-17T03:37:32.042Z,88.77
2023-04-17T03:39:57.120Z,89.50
2023-04-17T03:42:22.309Z,88.26
2023-04-17T03:44:46.692Z,88.94
2023-04-17T03:47:12.274Z,88.92
2023-04-17T03:49:38.142Z,88.99
2023-04-17T03:52:03.750Z,89.20
2023-04-17T03:54:29.293Z,89.46
2023-04-17T03:56:54.967Z,89.49
2023-04-17T03:59:19.485Z,89.99
2023-04-17T04:01:44.785Z,89.99
2023-04-17T04:04:16.162Z,90.27
2023-04-17T04:06:41.116Z,91.08
2023-04-17T04:09:06.680Z,90.75
2023-04-17T04:11:30.224Z,90.15
2023-04-17T04:13:55.284Z,89.98
2023-04-17T04:16:19.050Z,90.19
2023-04-17T04:18:43.401Z,89.71
2023-04-17T04:21:08.200Z,90.24
2023-04-17T04:23:37.684Z,91.95
2023-04-17T04:26:02.701Z,91.49
2023-04-17T04:28:49.448Z,91.94
2023-04-17T04:31:30.672Z,91.30
2023-04-17T04:33:58.879Z,92.52
2023-04-17T04:36:25.190Z,92.72
2023-04-17T04:39:02.126Z,92.24
2023-04-17T04:41:33.873Z,91.33
2023-04-17T04:43:59.625Z,92.80
2023-04-17T04:46:23.896Z,92.97
2023-04-17T04:48:49.189Z,92.28
2023-04-17T04:51:12.980Z,92.91
2023-04-17T04:53:37.375Z,92.53
2023-04-17T04:56:01.028Z,93.89
2023-04-17T04:58:29.471Z,93.12
2023-04-17T05:00:56.772Z,94.21
2023-04-17T05:03:27.122Z,93.49
2023-04-17T05:05:52.360Z,93.72
2023-04-17T05:08:18.828Z,93.07
2023-04-17T05:10:51.090Z,91.93
2023-04-17T05:13:14.904Z,91.79
2023-04-17T05:15:38.596Z,92.37
2023-04-17T05:18:02.742Z,93.12
2023-04-17T05:20:29.301Z,92.44
2023-04-17T05:22:56.777Z,93.18
2023-04-17T05:25:20.876Z,92.06
2023-04-17T05:27:44.526Z,92.71
2023-04-17T05:30:11.271Z,92.41
2023-04-17T05:32:35.686Z,92.92
2023-04-17T05:35:20.312Z,93.66
2023-04-17T05:37:45.946Z,92.99
2023-04-17T05:40:11.994Z,93.48
2023-04-17T05:42:35.773Z,92.76
2023-04-17T05:45:00.034Z,92.36
2023-04-17T05:47:23.750Z,92.41
2023-04-17T05:49:48.679Z,91.96
2023-04-17T05:52:12.384Z,91.56
2023-04-17T05:54:39.666Z,92.04
2023-04-17T05:57:06.671Z,90.70
2023-04-17T05:59:30.667Z,92.70
2023-04-17T06:01:55.210Z,91.68
2023-04-17T06:04:19.500Z,92.67
2023-04-17T06:06:47.113Z,91.89
2023-04-17T06:09:12.350Z,92.54
2023-04-17T06:11:37.410Z,90.74
2023-04-17T06:14:02.611Z,91.60
2023-04-17T06:16:26.585Z,90.93
2023-04-17T06:18:50.216Z,90.40
2023-04-17T06:21:13.779Z,91.39
2023-04-17T06:23:37.883Z,89.95
2023-04-17T06:26:01.782Z,90.28
2023-04-17T06:28:25.677Z,89.30
2023-04-17T06:30:52.607Z,89.23
2023-04-17T06:33:16.592Z,87.64
2023-04-17T06:35:40.912Z,88.89
2023-04-17T06:38:21.789Z,87.98
2023-04-17T06:40:46.494Z,87.43
2023-04-17T06:43:10.095Z,86.89
2023-04-17T06:45:35.809Z,86.84
2023-04-17T06:48:04.331Z,86.94
2023-04-17T06:50:29.922Z,85.49
2023-04-17T06:52:53.492Z,85.45
2023-04-17T06:55:17.098Z,85.31
2023-04-17T06:57:40.696Z,84.80
2023-04-17T07:00:04.786Z,85.08
2023-04-17T07:02:28.526Z,84.95
2023-04-17T07:04:54.904Z,83.06
2023-04-17T07:07:18.761Z,82.87
2023-04-17T07:09:42.982Z,83.14
2023-04-17T07:12:06.726Z,81.48
2023-04-17T07:14:30.627Z,81.54
2023-04-17T07:16:54.188Z,81.30
2023-04-17T07:19:18.010Z,80.92
2023-04-17T07:21:43.083Z,80.34
2023-04-17T07:24:07.241Z,80.09
2023-04-17T07:26:30.902Z,79.72
2023-04-17T07:28:54.574Z,80.51
2023-04-17T07:31:18.242Z,79.21
2023-04-17T07:33:41.968Z,78.26
2023-04-17T07:36:08.456Z,78.62
2023-04-17T07:38:34.182Z,78.48
2023-04-17T07:40:57.727Z,76.56
2023-04-17T07:43:21.290Z,76.65
2023-04-17T07:45:44.834Z,76.21
2023-04-17T07:48:08.490Z,76.18
2023-04-17T07:50:32.591Z,75.74
2023-04-17T07:52:57.227Z,75.70
2023-04-17T07:55:22.452Z,74.57
2023-04-17T07:57:46.584Z,75.57
2023-04-17T08:00:13.663Z,75.29
2023-04-17T08:02:38.539Z,73.70
2023-04-17T08:05:02.265Z,74.22
2023-04-17T08:07:25.967Z,73.51
2023-04-17T08:09:51.158Z,73.43
2023-04-17T08:12:16.137Z,71.93
2023-04-17T08:14:40.812Z,72.95
2023-04-17T08:17:04.768Z,73.10
2023-04-17T08:19:28.462Z,71.16
2023-04-17T08:21:52.765Z,70.88
2023-04-17T08:24:19.199Z,70.42
2023-04-17T08:26:43.481Z,70.70
2023-04-17T08:29:08.410Z,69.58
2023-04-17T08:31:32.343Z,70.68
2023-04-17T08:34:06.613Z,69.66
2023-04-17T08:36:34.438Z,68.53
2023-04-17T08:38:57.962Z,67.93
2023-04-17T08:41:25.237Z,65.22
2023-04-17T08:43:51.328Z,64.23
2023-04-17T08:46:17.493Z,63.50
2023-04-17T08:48:41.113Z,62.50
2023-04-17T08:51:04.953Z,64.39
2023-04-17T08:53:28.491Z,65.83
2023-04-17T08:55:52.186Z,61.28
2023-04-17T08:58:16.032Z,60.93
2023-04-17T09:00:41.714Z,59.55
2023-04-17T09:03:08.991Z,59.68
2023-04-17T09:05:34.466Z,59.49
2023-04-17T09:08:11.380Z,58.78
2023-04-17T09:10:40.217Z,54.28
2023-04-17T09:13:03.820Z,55.09
2023-04-17T09:15:27.523Z,55.12
2023-04-17T09:17:51.147Z,53.81
2023-04-17T09:20:17.421Z,54.80
2023-04-17T09:22:42.441Z,55.50
2023-04-17T09:25:08.558Z,55.66
2023-04-17T09:27:32.490Z,53.33
2023-04-17T09:30:04.440Z,55.61
2023-04-17T09:32:28.602Z,57.46
2023-04-17T09:34:53.131Z,55.72
2023-04-17T09:37:18.098Z,55.22
2023-04-17T09:39:57.698Z,54.04
2023-04-17T09:42:21.281Z,55.14
2023-04-17T09:44:45.095Z,56.70
2023-04-17T09:47:11.386Z,55.78
2023-04-17T09:49:40.579Z,54.93
2023-04-17T09:52:05.492Z,53.61
2023-04-17T09:54:32.865Z,53.49
2023-04-17T09:56:57.770Z,52.00
2023-04-17T09:59:23.383Z,50.45
2023-04-17T10:01:47.714Z,52.99
2023-04-17T10:04:12.052Z,52.11
2023-04-17T10:06:37.200Z,51.48
2023-04-17T10:09:00.940Z,53.21
2023-04-17T10:11:30.000Z,52.28
2023-04-17T10:14:05.855Z,53.15
2023-04-17T10:16:37.189Z,50.24
2023-04-17T10:19:29.835Z,51.93
2023-04-17T10:22:31.251Z,51.45
2023-04-17T10:25:19.492Z,49.93
2023-04-17T10:27:53.502Z,50.78
2023-04-17T10:30:17.750Z,48.57
2023-04-17T10:32:43.324Z,49.84
2023-04-17T10:35:39.954Z,50.72
2023-04-17T10:38:08.815Z,51.23
2023-04-17T10:40:34.364Z,50.49
2023-04-17T10:43:08.478Z,50.32
2023-04-17T10:45:57.527Z,49.05
2023-04-17T10:48:23.324Z,47.97
2023-04-17T10:50:47.253Z,49.99
2023-04-17T10:53:42.214Z,50.86
2023-04-17T10:56:06.246Z,52.53
2023-04-17T10:58:32.180Z,50.26
2023-04-17T11:00:55.983Z,53.36
2023-04-17T11:03:19.631Z,52.26
2023-04-17T11:05:46.942Z,52.47
2023-04-17T11:08:11.744Z,53.09
2023-04-17T11:10:38.020Z,52.86
2023-04-17T11:13:01.609Z,52.14
2023-04-17T11:15:31.190Z,52.08
2023-04-17T11:17:56.175Z,52.76
2023-04-17T11:20:23.293Z,51.46
2023-04-17T11:22:47.095Z,50.51
2023-04-17T11:25:20.569Z,50.91
2023-04-17T11:27:44.177Z,51.57
2023-04-17T11:30:09.733Z,50.48
2023-04-17T11:32:38.888Z,48.96
2023-04-17T11:35:02.480Z,50.56
2023-04-17T11:37:26.037Z,50.81
2023-04-17T11:39:49.695Z,49.88
2023-04-17T11:42:13.367Z,49.87
2023-04-17T11:44:37.049Z,51.48
2023-04-17T11:47:01.010Z,50.39
2023-04-17T11:49:30.627Z,49.07
2023-04-17T11:51:54.384Z,50.98
2023-04-17T11:54:26.515Z,51.05
2023-04-17T11:57:01.496Z,48.33
2023-04-17T11:59:32.480Z,48.57
2023-04-17T12:01:56.571Z,49.01
2023-04-17T12:04:22.411Z,48.23
2023-04-17T12:06:47.523Z,50.01
2023-04-17T12:09:21.778Z,50.93
2023-04-17T12:11:45.738Z,51.40
2023-04-17T12:14:12.682Z,50.35
2023-04-17T12:16:37.005Z,52.97
2023-04-17T12:19:01.087Z,51.20
2023-04-17T12:21:25.540Z,50.23
2023-04-17T12:23:51.404Z,51.71
2023-04-17T12:26:15.470Z,54.75
2023-04-17T12:28:39.533Z,55.07
2023-04-17T12:31:04.061Z,55.89
2023-04-17T12:33:27.631Z,57.94
2023-04-17T12:35:51.535Z,60.19
2023-04-17T12:38:15.268Z,60.03
2023-04-17T12:40:43.238Z,61.12
2023-04-17T12:43:08.393Z,62.28
2023-04-17T12:45:33.690Z,61.20
2023-04-17T12:47:57.335Z,62.26
2023-04-17T12:50:21.005Z,62.91
2023-04-17T12:52:44.549Z,63.70
2023-04-17T12:55:09.657Z,64.36
2023-04-17T12:57:35.526Z,62.63
2023-04-17T12:59:59.219Z,61.06
2023-04-17T13:02:23.891Z,61.53
2023-04-17T13:04:47.948Z,61.94
2023-04-17T13:07:13.413Z,63.32
2023-04-17T13:09:37.049Z,62.01
2023-04-17T13:12:01.529Z,61.18
2023-04-17T13:14:26.712Z,64.10
2023-04-17T13:16:50.950Z,63.47
2023-04-17T13:19:15.117Z,64.46
2023-04-17T13:21:38.980Z,63.69
2023-04-17T13:24:02.580Z,63.37
2023-04-17T13:26:26.266Z,62.66
2023-04-17T13:28:49.866Z,63.37
2023-04-17T13:31:14.918Z,63.99
2023-04-17T13:33:40.265Z,62.57
2023-04-17T13:36:03.823Z,62.43
2023-04-17T13:38:27.568Z,61.94
2023-04-17T13:40:51.117Z,61.82
2023-04-17T13:43:14.718Z,62.74
2023-04-17T13:45:38.381Z,63.41
2023-04-17T13:48:03.580Z,63.39
2023-04-17T13:50:27.176Z,63.34
2023-04-17T13:52:51.065Z,64.09
2023-04-17T13:55:14.748Z,64.24
2023-04-17T13:57:38.500Z,66.44
2023-04-17T14:00:02.083Z,66.00
2023-04-17T14:02:28.358Z,66.55
2023-04-17T14:04:53.644Z,66.81
2023-04-17T14:07:18.471Z,66.73
2023-04-17T14:09:42.132Z,67.88
2023-04-17T14:12:06.094Z,67.91
2023-04-17T14:14:29.655Z,69.94
2023-04-17T14:16:53.343Z,68.99
2023-04-17T14:19:17.206Z,70.52
2023-04-17T14:21:42.578Z,69.33
2023-04-17T14:24:06.766Z,70.46
2023-04-17T14:26:30.565Z,70.56
2023-04-17T14:28:54.256Z,72.58
2023-04-17T14:31:17.951Z,72.91
2023-04-17T14:33:41.569Z,73.57
2023-04-17T14:36:06.047Z,74.99
2023-04-17T14:38:31.215Z,75.63
2023-04-17T14:40:55.108Z,75.25
2023-04-17T14:43:18.837Z,74.75
2023-04-17T14:45:42.568Z,75.56
2023-04-17T14:48:07.185Z,74.72
2023-04-17T14:50:31.074Z,75.72
2023-04-17T14:52:55.914Z,75.36
2023-04-17T14:55:21.786Z,76.14
2023-04-17T14:57:45.637Z,78.05
2023-04-17T15:00:10.761Z,78.08
2023-04-17T15:02:38.544Z,76.29
2023-04-17T15:05:02.711Z,75.63
2023-04-17T15:07:26.477Z,77.09
2023-04-17T15:09:50.098Z,76.51
2023-04-17T15:12:15.006Z,77.71
2023-04-17T15:14:38.627Z,78.05
2023-04-17T15:17:03.245Z,78.00
2023-04-17T15:19:27.030Z,79.61
2023-04-17T15:21:50.822Z,80.49
2023-04-17T15:24:14.531Z,80.97
2023-04-17T15:26:38.129Z,82.65
2023-04-17T15:29:03.742Z,84.51
2023-04-17T15:31:27.356Z,82.75
2023-04-17T15:33:51.068Z,83.84
2023-04-17T15:36:14.681Z,81.43
2023-04-17T15:38:38.367Z,83.94
2023-04-17T15:41:03.667Z,84.13
2023-04-17T15:43:28.097Z,83.56
2023-04-17T15:45:53.614Z,83.32
2023-04-17T15:48:17.296Z,82.10
2023-04-17T15:50:40.964Z,82.16
2023-04-17T15:53:04.616Z,82.86
2023-04-17T15:55:28.308Z,83.50
2023-04-17T15:57:52.053Z,82.29
2023-04-17T16:00:16.907Z,84.42
2023-04-17T16:02:42.088Z,84.13
2023-04-17T16:05:06.447Z,85.48
2023-04-17T16:07:30.322Z,85.79
2023-04-17T16:09:53.860Z,86.31
2023-04-17T16:12:17.508Z,85.53
2023-04-17T16:14:41.062Z,84.92
2023-04-17T16:17:04.947Z,84.67
2023-04-17T16:19:30.547Z,85.69
2023-04-17T16:21:54.200Z,84.31
2023-04-17T16:24:17.744Z,83.62
2023-04-17T16:26:42.755Z,84.36
2023-04-17T16:29:06.372Z,82.97
2023-04-17T16:31:30.005Z,84.01
2023-04-17T16:33:53.854Z,84.52
2023-04-17T16:36:19.002Z,84.84
2023-04-17T16:38:42.588Z,84.81
2023-04-17T16:41:06.395Z,86.45
2023-04-17T16:43:30.464Z,87.09
2023-04-17T16:45:54.173Z,87.72
2023-04-17T16:48:17.892Z,86.90
2023-04-17T16:50:42.190Z,86.24
2023-04-17T16:53:07.320Z,87.01
2023-04-17T16:55:30.973Z,87.86
2023-04-17T16:57:55.700Z,88.97
2023-04-17T17:00:19.930Z,88.28
2023-04-17T17:02:43.834Z,87.52
2023-04-17T17:05:09.390Z,89.28
2023-04-17T17:07:34.287Z,87.77
2023-04-17T17:10:01.205Z,87.98
2023-04-17T17:12:26.757Z,89.43
2023-04-17T17:14:52.493Z,87.94
2023-04-17T17:17:16.229Z,89.38
2023-04-17T17:19:40.991Z,89.33
2023-04-17T17:22:05.988Z,89.33
2023-04-17T17:24:31.381Z,89.82
2023-04-17T17:26:57.184Z,91.02
2023-04-17T17:29:21.028Z,90.43
2023-04-17T17:31:52.149Z,90.25
2023-04-17T17:34:26.190Z,91.33
2023-04-17T17:36:50.562Z,90.63
2023-04-17T17:39:14.187Z,89.30
2023-04-17T17:41:38.005Z,90.96
2023-04-17T17:44:02.976Z,90.12
2023-04-17T17:46:27.848Z,91.33
2023-04-17T17:48:51.491Z,90.18
2023-04-17T17:51:15.250Z,90.28
2023-04-17T17:53:38.744Z,90.90
2023-04-17T17:56:02.651Z,91.03
2023-04-17T17:58:27.315Z,91.52
2023-04-17T18:00:52.480Z,89.66
2023-04-17T18:03:16.883Z,89.71
2023-04-17T18:05:40.801Z,91.76
2023-04-17T18:08:04.373Z,90.49
2023-04-17T18:10:30.882Z,91.59
2023-04-17T18:12:54.587Z,92.50
2023-04-17T18:15:18.824Z,91.88
2023-04-17T18:17:43.785Z,91.79
2023-04-17T18:20:09.215Z,92.55
2023-04-17T18:22:32.839Z,92.43
2023-04-17T18:24:56.830Z,93.94
2023-04-17T18:27:20.456Z,93.51
2023-04-17T18:29:44.089Z,92.90
2023-04-17T18:32:07.733Z,92.99
2023-04-17T18:34:32.739Z,92.88
2023-04-17T18:36:58.498Z,94.21
2023-04-17T18:39:22.140Z,94.50
2023-04-17T18:41:45.664Z,92.90
2023-04-17T18:44:09.267Z,93.49
2023-04-17T18:46:33.387Z,94.36
2023-04-17T18:48:57.246Z,95.41
2023-04-17T18:51:22.175Z,95.67
2023-04-17T18:53:47.021Z,94.78
2023-04-17T18:56:11.393Z,94.02
2023-04-17T18:58:35.201Z,94.10
2023-04-17T19:01:00.882Z,93.80
2023-04-17T19:03:25.571Z,94.90
2023-04-17T19:05:49.529Z,93.89
2023-04-17T19:08:14.956Z,94.77
2023-04-17T19:10:40.108Z,94.33
2023-04-17T19:13:05.380Z,94.60
2023-04-17T19:15:28.979Z,95.08
2023-04-17T19:17:52.816Z,95.39
2023-04-17T19:20:16.926Z,94.79
2023-04-17T19:22:40.597Z,94.10
2023-04-17T19:25:06.192Z,96.08
2023-04-17T19:27:29.855Z,95.48
2023-04-17T19:29:53.453Z,94.95
2023-04-17T19:32:17.199Z,95.46
2023-04-17T19:34:41.263Z,95.71
2023-04-17T19:37:05.287Z,95.19
2023-04-17T19:39:29.095Z,96.04
2023-04-17T19:41:54.058Z,96.26
2023-04-17T19:44:17.696Z,96.82
2023-04-17T19:46:42.637Z,96.69
2023-04-17T19:49:06.597Z,97.01
2023-04-17T19:51:30.191Z,96.83
2023-04-17T19:53:54.381Z,95.83
2023-04-17T19:56:18.095Z,95.74
2023-04-17T19:58:43.478Z,96.48
2023-04-17T20:01:07.478Z,95.00
2023-04-17T20:03:32.455Z,94.84
2023-04-17T20:05:57.894Z,94.97
2023-04-17T20:08:21.904Z,94.89
2023-04-17T20:10:45.580Z,94.63
2023-04-17T20:13:11.799Z,94.64
2023-04-17T20:15:36.965Z,94.03
2023-04-17T20:18:00.848Z,95.34
2023-04-17T20:20:24.822Z,94.50
2023-04-17T20:22:48.416Z,93.86
2023-04-17T20:25:12.028Z,95.43
2023-04-17T20:27:35.589Z,94.56
2023-04-17T20:29:59.180Z,94.88
2023-04-17T20:32:24.455Z,94.70
2023-04-17T20:34:48.219Z,94.99
2023-04-17T20:37:11.831Z,94.35
2023-04-17T20:39:35.451Z,93.87
2023-04-17T20:41:59.019Z,94.89
2023-04-17T20:44:22.754Z,94.03
2023-04-17T20:46:46.709Z,95.26
2023-04-17T20:49:11.925Z,95.18
2023-04-17T20:51:35.707Z,95.56
2023-04-17T20:53:59.344Z,95.45
2023-04-17T20:56:23.919Z,95.45
2023-04-17T20:58:47.643Z,95.17
2023-04-17T21:01:11.203Z,94.94
2023-04-17T21:03:35.040Z,94.25
2023-04-17T21:06:00.039Z,94.86
2023-04-17T21:08:23.788Z,95.03
2023-04-17T21:10:47.286Z,94.74
2023-04-17T21:13:10.957Z,95.08
2023-04-17T21:15:34.550Z,93.96
2023-04-17T21:17:58.249Z,94.31
2023-04-17T21:20:21.823Z,93.39
2023-04-17T21:22:47.110Z,94.24
2023-04-17T21:25:11.519Z,94.99
2023-04-17T21:27:36.313Z,94.63
2023-04-17T21:30:00.542Z,94.68
2023-04-17T21:32:24.622Z,93.44
2023-04-17T21:34:48.318Z,93.60
2023-04-17T21:37:11.956Z,93.69
2023-04-17T21:39:37.415Z,93.17
2023-04-17T21:42:01.989Z,93.96
2023-04-17T21:44:25.707Z,94.38
2023-04-17T21:46:49.319Z,94.25
2023-04-17T21:49:12.863Z,94.83
2023-04-17T21:51:36.441Z,95.10
2023-04-17T21:54:00.156Z,94.10
2023-04-17T21:56:25.236Z,94.33
2023-04-17T21:58:48.757Z,93.16
2023-04-17T22:01:12.536Z,93.17
2023-04-17T22:03:36.379Z,92.44
2023-04-17T22:06:00.024Z,92.94
2023-04-17T22:08:23.604Z,92.75
2023-04-17T22:10:47.225Z,92.32
2023-04-17T22:13:12.343Z,93.09
2023-04-17T22:15:36.091Z,92.04
2023-04-17T22:18:00.142Z,91.39
2023-04-17T22:20:23.791Z,92.17
2023-04-17T22:22:48.295Z,91.07
2023-04-17T22:25:11.896Z,92.23
2023-04-17T22:27:35.470Z,91.43
2023-04-17T22:30:00.569Z,91.82
2023-04-17T22:32:24.101Z,92.25
2023-04-17T22:34:49.469Z,92.00
2023-04-17T22:37:12.980Z,91.92
2023-04-17T22:39:36.761Z,92.74
2023-04-17T22:42:01.154Z,92.07
2023-04-17T22:44:24.735Z,92.03
2023-04-17T22:46:49.674Z,91.80
2023-04-17T22:49:14.843Z,90.92
2023-04-17T22:51:38.347Z,90.85
2023-04-17T22:54:11.614Z,90.59
2023-04-17T22:56:43.264Z,92.11
2023-04-17T22:59:06.789Z,91.15
2023-04-17T23:01:30.548Z,91.31
2023-04-17T23:03:55.505Z,91.29
2023-04-17T23:06:23.702Z,91.47
2023-04-17T23:08:47.288Z,90.74
2023-04-17T23:11:10.929Z,90.38
2023-04-17T23:13:34.476Z,91.33
2023-04-17T23:15:58.387Z,91.43
2023-04-17T23:18:22.103Z,91.87
2023-04-17T23:20:47.904Z,91.48
2023-04-17T23:23:11.591Z,91.86
2023-04-17T23:25:35.288Z,92.17
2023-04-17T23:27:58.799Z,92.81
2023-04-17T23:30:22.586Z,91.32
2023-04-17T23:32:46.195Z,91.30
2023-04-17T23:35:10.862Z,90.82
2023-04-17T23:37:35.802Z,90.13
2023-04-17T23:40:01.312Z,91.56
2023-04-17T23:42:24.864Z,91.07
2023-04-17T23:44:48.471Z,91.02
2023-04-17T23:47:14.348Z,91.25
2023-04-17T23:49:38.152Z,91.91
2023-04-17T23:52:01.794Z,91.57
2023-04-17T23:54:26.824Z,91.71
2023-04-17T23:56:50.426Z,91.11
2023-04-17T23:59:14.144Z,91.99
